ADDS METAR Data INFO
IDs: Format: Raw Decoded Include TAF

Data at: 0259 UTC 17 Jan 2018

KHLN 170253Z 25005KT 6SM BR BKN055 M07/M09 A3027 RMK AO2 SLP336 T10721094 51009
KHLN 170153Z 00000KT 7SM FEW120 M07/M09 A3026 RMK AO2 SLP332 T10721089
KHLN 170053Z 00000KT 7SM CLR M07/M09 A3026 RMK AO2 SLP332 T10721094
KHLN 162353Z 00000KT 6SM BR CLR M08/M10 A3024 RMK AO2 SLP327 T10831100 11044 21111 51002
KHLN 162253Z 00000KT 5SM HZ CLR M06/M09 A3024 RMK AO2 SLP324 T10611094
KHLN 162153Z AUTO 04004KT 9SM CLR M05/M07 A3024 RMK AO2 SLP319 T10501072
KHLN 162053Z 06003KT 5SM BR CLR M07/M09 A3023 RMK AO2 SLP315 T10671089 56019 $
KHLN 161953Z 00000KT 5SM BR SCT008 M09/M09 A3025 RMK AO2 SLP327 T10891094 $
KHLN 161943Z 00000KT 5SM BR BKN008 M09/M10 A3026 RMK AO2 T10891100 $
KHLN 161932Z 04003KT 5SM BR SCT008 M09/M11 A3026 RMK AO2 T10891106 $
KHLN 161853Z 26003KT 5SM BR OVC008 M08/M09 A3027 RMK AO2 SLP330 T10831089 $
KHLN 161842Z 00000KT 5SM BR OVC008 M09/M10 A3028 RMK AO2 T10941100 $
KHLN 161800Z 00000KT 2SM BR OVC009 M11/M12 A3029 RMK AO2 T11111117 $
KHLN 161753Z 00000KT 1/2SM FZFG OVC009 M11/M12 A3030 RMK AO2 SLP341 T11111122 11111 21156 50001 $
KHLN 161743Z 05004KT 1/2SM FZFG OVC009 M12/M13 A3030 RMK AO2 T11171128 $
KHLN 161710Z 02003KT 1/2SM FZFG SCT005 OVC010 M12/M13 A3031 RMK AO2 T11171128 $
KHLN 161653Z 00000KT 1/2SM FZFG VV003 M12/M13 A3031 RMK AO2 SLP348 T11221128 $
KHLN 161649Z 00000KT 1/2SM FZFG VV002 M12/M13 A3031 RMK AO2 $
KHLN 161640Z 00000KT M1/4SM FZFG VV003 M13/M13 A3031 RMK AO2 T11281133 $
KHLN 161627Z 07003KT M1/4SM FZFG BKN005 OVC011 M13/M14 A3031 RMK AO2 T11331139 $
KHLN 161619Z 03003KT 1/4SM FZFG FEW001 OVC011 M13/M13 A3030 RMK AO2 T11281133 $
KHLN 161612Z 36003KT 1/2SM FZFG FEW001 OVC011 M13/M14 A3030 RMK AO2 T11281139 $
KHLN 161558Z 00000KT 1/2SM FZFG BKN001 OVC011 M12/M13 A3030 RMK AO2 T11221133 $
KHLN 161553Z 00000KT 1/4SM FZFG BKN002 OVC011 M13/M13 A3030 RMK AO2 SLP343 T11281133 $
KHLN 161500Z 00000KT 1/4SM FZFG VV002 M14/M16 A3030 RMK AO2 T11441161 $
KHLN 161453Z 00000KT 1/2SM FZFG VV002 M14/M16 A3029 RMK AO2 SLP342 T11441156 56004 $
KHLN 161421Z 00000KT 1/2SM FZFG VV001 M15/M17 A3030 RMK AO2 T11501167 $
KHLN 161401Z 07003KT 6SM BR SCT021 M14/M16 A3030 RMK AO2 T11441156 $
KHLN 161353Z 00000KT 5SM BR BKN022 M14/M15 A3030 RMK AO2 SLP342 T11391150 $
KHLN 161325Z 20003KT 2SM BR SCT001 OVC023 M14/M15 A3030 RMK AO2 T11391150 $
KHLN 161317Z 00000KT 1/2SM FZFG BKN001 OVC023 M14/M16 A3031 RMK AO2 T11441156 $
KHLN 161253Z 00000KT 1/2SM FZFG BKN002 OVC021 M16/M16 A3031 RMK AO2 SLP345 T11561161 $
KHLN 161251Z 00000KT BKN002 OVC021 M16/M16 A3031 RMK AO2 $
KHLN 161153Z AUTO 17003KT SCT001 BKN022 M14/M14 A3032 RMK AO2 SLP345 7//// T11391144 11083 21161 58007 $
KHLN 161136Z AUTO 11003KT SCT001 OVC022 M15/M16 A3033 RMK AO2 T11501156 $
KHLN 161107Z AUTO 13003KT BKN001 M16/M16 A3034 RMK AO2 T11561161 $
KHLN 161102Z AUTO 11003KT SCT002 M16/M16 A3034 RMK AO2 T11561161 $
KHLN 161053Z AUTO 07004KT CLR M16/M17 A3034 RMK AO2 SLP351 T11561167 $
KHLN 161035Z AUTO 28005KT SCT001 M13/M14 A3033 RMK AO2 T11281139 $
KHLN 160953Z AUTO 07003KT OVC001 M13/M14 A3034 RMK AO2 SLPNO T11331144 $
KHLN 160908Z AUTO 05003KT BKN001 BKN025 M14/M15 A3034 RMK AO2 T11391150 $
KHLN 160906Z AUTO 06003KT SCT001 SCT025 M14/M15 A3035 RMK AO2 T11391150 $
KHLN 160853Z AUTO 00000KT FEW025 M11/M12 A3034 RMK AO2 SLPNO T11061117 58014 $
KHLN 160808Z AUTO 00000KT FEW001 M12/M12 A3036 RMK AO2 T11171122 $
KHLN 160801Z AUTO 00000KT BKN001 M12/M13 A3036 RMK AO2 T11171128 $
KHLN 160753Z AUTO 00000KT SCT001 M13/M13 A3036 RMK AO2 SLPNO T11281133 $
KHLN 160742Z AUTO 00000KT SCT001 M13/M13 A3037 RMK AO2 T11281128 $
KHLN 160653Z AUTO 00000KT CLR M10/M11 A3038 RMK AO2 SLPNO T11001111 $
KHLN 160553Z AUTO 00000KT CLR M08/M10 A3039 RMK AO2 SLPNO T10831100 11033 21100 58003 $
KHLN 160453Z AUTO 30006KT 10SM CLR M09/M11 A3039 RMK AO2 SLPNO T10941106 $
KHLN 160353Z 26005KT CLR M07/M09 A3040 RMK AO2 SLP364 T10721089 $
KHLN 160253Z 00000KT 10SM CLR M06/M08 A3040 RMK AO2 SLP360 T10611078 58005 $
KHLN 160153Z 18003KT 10SM CLR M06/M07 A3041 RMK AO2 SLP362 T10561072 $
KHLN 160053Z 00000KT 10SM CLR M04/M06 A3041 RMK AO2 SLPNO T10391061
KHLN 152353Z 00000KT 10SM CLR M03/M06 A3042 RMK AO2 SLPNO 6//// T10331056
KHLN 152253Z AUTO 00000KT 10SM CLR M01/M05 A3043 RMK AO2 SLPNO T10061050
KHLN 152153Z AUTO A3044 RMK AO2 SLPNO PWINO FZRANO $
KHLN 152053Z AUTO A3045 RMK AO2 SLPNO 6//// PWINO FZRANO $
KHLN 151953Z AUTO A3047 RMK AO2 SLPNO PWINO FZRANO $
KHLN 151853Z AUTO A3050 RMK AO2 SLPNO PWINO FZRANO
KHLN 151753Z AUTO A3052 RMK AO2 SLPNO 50002 PWINO FZRANO
KHLN 151653Z AUTO A3053 RMK AO2 SLPNO PWINO FZRANO
KHLN 151553Z AUTO 00000KT 10SM BKN040 M04/M05 A3053 RMK AO2 SLP394 T10391050 PWINO FZRANO